sensor_id;sensor_type;location;lat;lon;timestamp;temperature;humidity
65462;DHT22;53236;43.666;18.444;2024-03-08T00:02:14;3.60;99.90
65462;DHT22;53236;43.666;18.444;2024-03-08T00:04:40;3.70;99.90
65462;DHT22;53236;43.666;18.444;2024-03-08T00:07:06;3.70;99.90
65462;DHT22;53236;43.666;18.444;2024-03-08T00:09:32;3.70;99.90
65462;DHT22;53236;43.666;18.444;2024-03-08T00:11:58;3.60;99.90
65462;DHT22;53236;43.666;18.444;2024-03-08T00:14:24;3.60;99.90
65462;DHT22;53236;43.666;18.444;2024-03-08T00:16:51;3.60;99.90
65462;DHT22;53236;43.666;18.444;2024-03-08T00:19:18;3.60;99.90
65462;DHT22;53236;43.666;18.444;2024-03-08T00:21:44;3.60;99.90
65462;DHT22;53236;43.666;18.444;2024-03-08T00:24:10;3.60;99.90
65462;DHT22;53236;43.666;18.444;2024-03-08T00:26:37;3.60;99.90
65462;DHT22;53236;43.666;18.444;2024-03-08T00:29:03;3.60;99.90
65462;DHT22;53236;43.666;18.444;2024-03-08T00:31:29;3.60;99.90
65462;DHT22;53236;43.666;18.444;2024-03-08T00:33:58;3.60;99.90
65462;DHT22;53236;43.666;18.444;2024-03-08T00:36:25;3.60;99.90
65462;DHT22;53236;43.666;18.444;2024-03-08T00:38:50;3.60;99.90
65462;DHT22;53236;43.666;18.444;2024-03-08T00:41:16;3.60;99.90
65462;DHT22;53236;43.666;18.444;2024-03-08T00:43:42;3.60;99.90
65462;DHT22;53236;43.666;18.444;2024-03-08T00:46:08;3.60;99.90
65462;DHT22;53236;43.666;18.444;2024-03-08T00:48:33;3.50;99.90
65462;DHT22;53236;43.666;18.444;2024-03-08T00:51:00;3.50;99.90
65462;DHT22;53236;43.666;18.444;2024-03-08T00:53:27;3.50;99.90
65462;DHT22;53236;43.666;18.444;2024-03-08T00:55:53;3.50;99.90
65462;DHT22;53236;43.666;18.444;2024-03-08T00:58:20;3.50;99.90
65462;DHT22;53236;43.666;18.444;2024-03-08T01:00:46;3.50;99.90
65462;DHT22;53236;43.666;18.444;2024-03-08T01:03:12;3.50;99.90
65462;DHT22;53236;43.666;18.444;2024-03-08T01:05:38;3.50;99.90
65462;DHT22;53236;43.666;18.444;2024-03-08T01:08:04;3.50;99.90
65462;DHT22;53236;43.666;18.444;2024-03-08T01:10:30;3.50;99.90
65462;DHT22;53236;43.666;18.444;2024-03-08T01:12:56;3.50;99.90
65462;DHT22;53236;43.666;18.444;2024-03-08T01:15:23;3.50;99.90
65462;DHT22;53236;43.666;18.444;2024-03-08T01:17:49;3.50;99.90
65462;DHT22;53236;43.666;18.444;2024-03-08T01:20:15;3.50;99.90
65462;DHT22;53236;43.666;18.444;2024-03-08T01:22:41;3.50;99.90
65462;DHT22;53236;43.666;18.444;2024-03-08T01:25:07;3.50;99.90
65462;DHT22;53236;43.666;18.444;2024-03-08T01:27:34;3.50;99.90
65462;DHT22;53236;43.666;18.444;2024-03-08T01:30:01;3.50;99.90
65462;DHT22;53236;43.666;18.444;2024-03-08T01:32:26;3.50;99.90
65462;DHT22;53236;43.666;18.444;2024-03-08T01:34:53;3.50;99.90
65462;DHT22;53236;43.666;18.444;2024-03-08T01:37:18;3.50;99.90
65462;DHT22;53236;43.666;18.444;2024-03-08T01:39:45;3.50;99.90
65462;DHT22;53236;43.666;18.444;2024-03-08T01:42:11;3.50;99.90
65462;DHT22;53236;43.666;18.444;2024-03-08T01:44:43;3.50;99.90
65462;DHT22;53236;43.666;18.444;2024-03-08T01:47:10;3.40;99.90
65462;DHT22;53236;43.666;18.444;2024-03-08T01:49:37;3.40;99.90
65462;DHT22;53236;43.666;18.444;2024-03-08T01:52:03;3.40;99.90
65462;DHT22;53236;43.666;18.444;2024-03-08T01:54:29;3.50;99.90
65462;DHT22;53236;43.666;18.444;2024-03-08T01:56:56;3.50;99.90
65462;DHT22;53236;43.666;18.444;2024-03-08T01:59:25;3.50;99.90
65462;DHT22;53236;43.666;18.444;2024-03-08T02:01:54;3.40;99.90
65462;DHT22;53236;43.666;18.444;2024-03-08T02:04:21;3.40;99.90
65462;DHT22;53236;43.666;18.444;2024-03-08T02:06:47;3.40;99.90
65462;DHT22;53236;43.666;18.444;2024-03-08T02:09:13;3.50;99.90
65462;DHT22;53236;43.666;18.444;2024-03-08T02:11:41;3.50;99.90
65462;DHT22;53236;43.666;18.444;2024-03-08T02:14:07;3.40;99.90
65462;DHT22;53236;43.666;18.444;2024-03-08T02:16:32;3.40;99.90
65462;DHT22;53236;43.666;18.444;2024-03-08T02:18:59;3.40;99.90
65462;DHT22;53236;43.666;18.444;2024-03-08T02:21:24;3.50;99.90
65462;DHT22;53236;43.666;18.444;2024-03-08T02:23:51;3.50;99.90
65462;DHT22;53236;43.666;18.444;2024-03-08T02:26:18;3.40;99.90
65462;DHT22;53236;43.666;18.444;2024-03-08T02:28:44;3.50;99.90
65462;DHT22;53236;43.666;18.444;2024-03-08T02:31:10;3.40;99.90
65462;DHT22;53236;43.666;18.444;2024-03-08T02:33:36;3.40;99.90
65462;DHT22;53236;43.666;18.444;2024-03-08T02:36:02;3.40;99.90
65462;DHT22;53236;43.666;18.444;2024-03-08T02:38:28;3.40;99.90
65462;DHT22;53236;43.666;18.444;2024-03-08T02:40:54;3.50;99.90
65462;DHT22;53236;43.666;18.444;2024-03-08T02:43:21;3.50;99.90
65462;DHT22;53236;43.666;18.444;2024-03-08T02:45:47;3.40;99.90
65462;DHT22;53236;43.666;18.444;2024-03-08T02:48:14;3.40;99.90
65462;DHT22;53236;43.666;18.444;2024-03-08T02:50:41;3.40;99.90
65462;DHT22;53236;43.666;18.444;2024-03-08T02:53:11;3.40;99.90
65462;DHT22;53236;43.666;18.444;2024-03-08T02:55:41;3.50;99.90
65462;DHT22;53236;43.666;18.444;2024-03-08T02:58:07;3.50;99.90
65462;DHT22;53236;43.666;18.444;2024-03-08T03:00:38;3.40;99.90
65462;DHT22;53236;43.666;18.444;2024-03-08T03:03:04;3.40;99.90
65462;DHT22;53236;43.666;18.444;2024-03-08T03:05:32;3.50;99.90
65462;DHT22;53236;43.666;18.444;2024-03-08T03:07:57;3.50;99.90
65462;DHT22;53236;43.666;18.444;2024-03-08T03:10:24;3.40;99.90
65462;DHT22;53236;43.666;18.444;2024-03-08T03:12:50;3.40;99.90
65462;DHT22;53236;43.666;18.444;2024-03-08T03:15:16;3.40;99.90
65462;DHT22;53236;43.666;18.444;2024-03-08T03:17:46;3.50;99.90
65462;DHT22;53236;43.666;18.444;2024-03-08T03:20:13;3.50;99.90
65462;DHT22;53236;43.666;18.444;2024-03-08T03:22:40;3.40;99.90
65462;DHT22;53236;43.666;18.444;2024-03-08T03:25:10;3.40;99.90
65462;DHT22;53236;43.666;18.444;2024-03-08T03:27:36;3.40;99.90
65462;DHT22;53236;43.666;18.444;2024-03-08T03:30:03;3.40;99.90
65462;DHT22;53236;43.666;18.444;2024-03-08T03:32:49;3.40;99.90
65462;DHT22;53236;43.666;18.444;2024-03-08T03:35:19;3.40;99.90
65462;DHT22;53236;43.666;18.444;2024-03-08T03:37:46;3.40;99.90
65462;DHT22;53236;43.666;18.444;2024-03-08T03:40:39;3.40;99.90
65462;DHT22;53236;43.666;18.444;2024-03-08T03:43:08;3.40;99.90
65462;DHT22;53236;43.666;18.444;2024-03-08T03:45:35;3.40;99.90
65462;DHT22;53236;43.666;18.444;2024-03-08T03:48:03;3.40;99.90
65462;DHT22;53236;43.666;18.444;2024-03-08T03:50:28;3.40;99.90
65462;DHT22;53236;43.666;18.444;2024-03-08T03:52:54;3.40;99.90
65462;DHT22;53236;43.666;18.444;2024-03-08T03:55:20;3.40;99.90
65462;DHT22;53236;43.666;18.444;2024-03-08T03:57:47;3.40;99.90
65462;DHT22;53236;43.666;18.444;2024-03-08T04:00:13;3.40;99.90
65462;DHT22;53236;43.666;18.444;2024-03-08T04:02:39;3.40;99.90
65462;DHT22;53236;43.666;18.444;2024-03-08T04:05:07;3.40;99.90
65462;DHT22;53236;43.666;18.444;2024-03-08T04:07:33;3.40;99.90
65462;DHT22;53236;43.666;18.444;2024-03-08T04:10:01;3.40;99.90
65462;DHT22;53236;43.666;18.444;2024-03-08T04:12:26;3.40;99.90
65462;DHT22;53236;43.666;18.444;2024-03-08T04:14:54;3.40;99.90
65462;DHT22;53236;43.666;18.444;2024-03-08T04:17:21;3.40;99.90
65462;DHT22;53236;43.666;18.444;2024-03-08T04:19:47;3.40;99.90
65462;DHT22;53236;43.666;18.444;2024-03-08T04:22:14;3.40;99.90
65462;DHT22;53236;43.666;18.444;2024-03-08T04:24:39;3.40;99.90
65462;DHT22;53236;43.666;18.444;2024-03-08T04:27:06;3.40;99.90
65462;DHT22;53236;43.666;18.444;2024-03-08T04:29:32;3.40;99.90
65462;DHT22;53236;43.666;18.444;2024-03-08T04:32:01;3.40;99.90
65462;DHT22;53236;43.666;18.444;2024-03-08T04:34:29;3.50;99.90
65462;DHT22;53236;43.666;18.444;2024-03-08T04:36:57;3.50;99.90
65462;DHT22;53236;43.666;18.444;2024-03-08T04:39:23;3.40;99.90
65462;DHT22;53236;43.666;18.444;2024-03-08T04:41:49;3.40;99.90
65462;DHT22;53236;43.666;18.444;2024-03-08T04:44:16;3.40;99.90
65462;DHT22;53236;43.666;18.444;2024-03-08T04:46:43;3.40;99.90
65462;DHT22;53236;43.666;18.444;2024-03-08T04:49:09;3.40;99.90
65462;DHT22;53236;43.666;18.444;2024-03-08T04:51:37;3.30;99.90
65462;DHT22;53236;43.666;18.444;2024-03-08T04:54:03;3.30;99.90
65462;DHT22;53236;43.666;18.444;2024-03-08T04:56:30;3.30;99.90
65462;DHT22;53236;43.666;18.444;2024-03-08T04:58:56;3.20;99.90
65462;DHT22;53236;43.666;18.444;2024-03-08T05:01:21;3.20;99.90
65462;DHT22;53236;43.666;18.444;2024-03-08T05:03:47;3.20;99.90
65462;DHT22;53236;43.666;18.444;2024-03-08T05:06:16;3.10;99.90
65462;DHT22;53236;43.666;18.444;2024-03-08T05:08:42;3.00;99.90
65462;DHT22;53236;43.666;18.444;2024-03-08T05:11:07;3.00;99.90
65462;DHT22;53236;43.666;18.444;2024-03-08T05:13:33;2.90;99.90
65462;DHT22;53236;43.666;18.444;2024-03-08T05:16:03;2.80;99.90
65462;DHT22;53236;43.666;18.444;2024-03-08T05:18:29;2.70;99.90
65462;DHT22;53236;43.666;18.444;2024-03-08T05:20:54;2.60;99.90
65462;DHT22;53236;43.666;18.444;2024-03-08T05:23:20;2.60;99.90
65462;DHT22;53236;43.666;18.444;2024-03-08T05:25:47;2.50;99.90
65462;DHT22;53236;43.666;18.444;2024-03-08T05:28:13;2.60;99.90
65462;DHT22;53236;43.666;18.444;2024-03-08T05:30:39;2.60;99.90
65462;DHT22;53236;43.666;18.444;2024-03-08T05:33:05;2.60;99.90
65462;DHT22;53236;43.666;18.444;2024-03-08T05:35:31;2.60;99.90
65462;DHT22;53236;43.666;18.444;2024-03-08T05:37:57;2.60;99.90
65462;DHT22;53236;43.666;18.444;2024-03-08T05:40:23;2.70;99.90
65462;DHT22;53236;43.666;18.444;2024-03-08T05:42:49;2.80;99.90
65462;DHT22;53236;43.666;18.444;2024-03-08T05:45:15;2.80;99.90
65462;DHT22;53236;43.666;18.444;2024-03-08T05:47:41;2.90;99.90
65462;DHT22;53236;43.666;18.444;2024-03-08T05:50:08;2.90;99.90
65462;DHT22;53236;43.666;18.444;2024-03-08T05:52:36;3.00;99.90
65462;DHT22;53236;43.666;18.444;2024-03-08T05:55:04;3.10;99.90
65462;DHT22;53236;43.666;18.444;2024-03-08T05:57:33;3.20;99.90
65462;DHT22;53236;43.666;18.444;2024-03-08T05:59:58;3.20;99.90
65462;DHT22;53236;43.666;18.444;2024-03-08T06:02:24;3.30;99.90
65462;DHT22;53236;43.666;18.444;2024-03-08T06:04:50;3.50;99.90
65462;DHT22;53236;43.666;18.444;2024-03-08T06:07:17;3.60;99.90
65462;DHT22;53236;43.666;18.444;2024-03-08T06:09:43;3.70;99.90
65462;DHT22;53236;43.666;18.444;2024-03-08T06:12:11;3.80;99.90
65462;DHT22;53236;43.666;18.444;2024-03-08T06:14:37;3.90;99.90
65462;DHT22;53236;43.666;18.444;2024-03-08T06:17:03;4.00;99.90
65462;DHT22;53236;43.666;18.444;2024-03-08T06:19:32;4.10;99.90
65462;DHT22;53236;43.666;18.444;2024-03-08T06:21:59;4.30;99.90
65462;DHT22;53236;43.666;18.444;2024-03-08T06:24:26;4.50;99.90
65462;DHT22;53236;43.666;18.444;2024-03-08T06:26:51;4.60;99.90
65462;DHT22;53236;43.666;18.444;2024-03-08T06:29:19;4.90;99.90
65462;DHT22;53236;43.666;18.444;2024-03-08T06:31:44;5.50;99.90
65462;DHT22;53236;43.666;18.444;2024-03-08T06:34:10;5.90;99.90
65462;DHT22;53236;43.666;18.444;2024-03-08T06:36:36;6.10;99.90
65462;DHT22;53236;43.666;18.444;2024-03-08T06:39:03;6.50;99.90
65462;DHT22;53236;43.666;18.444;2024-03-08T06:41:37;7.90;99.90
65462;DHT22;53236;43.666;18.444;2024-03-08T06:44:03;10.00;99.90
65462;DHT22;53236;43.666;18.444;2024-03-08T06:46:29;12.00;95.20
65462;DHT22;53236;43.666;18.444;2024-03-08T06:48:55;13.80;79.70
65462;DHT22;53236;43.666;18.444;2024-03-08T06:51:21;15.10;74.90
65462;DHT22;53236;43.666;18.444;2024-03-08T06:53:47;15.90;67.90
65462;DHT22;53236;43.666;18.444;2024-03-08T06:56:14;16.50;63.90
65462;DHT22;53236;43.666;18.444;2024-03-08T06:58:40;17.00;61.40
65462;DHT22;53236;43.666;18.444;2024-03-08T07:01:07;17.10;60.30
65462;DHT22;53236;43.666;18.444;2024-03-08T07:03:41;17.20;58.80
65462;DHT22;53236;43.666;18.444;2024-03-08T07:06:10;15.50;60.50
65462;DHT22;53236;43.666;18.444;2024-03-08T07:08:36;14.00;63.80
65462;DHT22;53236;43.666;18.444;2024-03-08T07:11:02;12.80;67.80
65462;DHT22;53236;43.666;18.444;2024-03-08T07:13:29;11.50;72.00
65462;DHT22;53236;43.666;18.444;2024-03-08T07:15:55;10.80;76.90
65462;DHT22;53236;43.666;18.444;2024-03-08T07:18:20;10.20;90.30
65462;DHT22;53236;43.666;18.444;2024-03-08T07:20:47;9.70;93.30
65462;DHT22;53236;43.666;18.444;2024-03-08T07:23:14;9.30;99.90
65462;DHT22;53236;43.666;18.444;2024-03-08T07:26:00;9.10;99.90
65462;DHT22;53236;43.666;18.444;2024-03-08T07:28:27;8.60;99.90
65462;DHT22;53236;43.666;18.444;2024-03-08T07:30:53;8.40;99.90
65462;DHT22;53236;43.666;18.444;2024-03-08T07:33:27;8.20;99.90
65462;DHT22;53236;43.666;18.444;2024-03-08T07:35:53;8.00;99.90
65462;DHT22;53236;43.666;18.444;2024-03-08T07:38:18;7.80;99.90
65462;DHT22;53236;43.666;18.444;2024-03-08T07:40:46;7.80;99.90
65462;DHT22;53236;43.666;18.444;2024-03-08T07:43:13;7.80;99.90
65462;DHT22;53236;43.666;18.444;2024-03-08T07:45:39;7.70;99.90
65462;DHT22;53236;43.666;18.444;2024-03-08T07:48:06;7.70;99.90
65462;DHT22;53236;43.666;18.444;2024-03-08T07:50:38;7.60;99.90
65462;DHT22;53236;43.666;18.444;2024-03-08T07:53:04;7.60;99.90
65462;DHT22;53236;43.666;18.444;2024-03-08T07:55:33;7.80;99.90
65462;DHT22;53236;43.666;18.444;2024-03-08T07:57:59;7.90;99.90
65462;DHT22;53236;43.666;18.444;2024-03-08T08:00:25;8.20;99.90
65462;DHT22;53236;43.666;18.444;2024-03-08T08:02:53;8.10;99.90
65462;DHT22;53236;43.666;18.444;2024-03-08T08:05:19;8.10;99.90
65462;DHT22;53236;43.666;18.444;2024-03-08T08:07:45;8.00;99.90
65462;DHT22;53236;43.666;18.444;2024-03-08T08:10:12;7.90;99.90
65462;DHT22;53236;43.666;18.444;2024-03-08T08:12:44;7.80;99.90
65462;DHT22;53236;43.666;18.444;2024-03-08T08:15:10;7.90;99.90
65462;DHT22;53236;43.666;18.444;2024-03-08T08:17:36;7.90;99.90
65462;DHT22;53236;43.666;18.444;2024-03-08T08:20:02;8.10;99.90
65462;DHT22;53236;43.666;18.444;2024-03-08T08:22:31;8.10;99.90
65462;DHT22;53236;43.666;18.444;2024-03-08T08:24:56;8.20;99.90
65462;DHT22;53236;43.666;18.444;2024-03-08T08:27:22;8.30;97.10
65462;DHT22;53236;43.666;18.444;2024-03-08T08:29:48;8.50;96.90
65462;DHT22;53236;43.666;18.444;2024-03-08T08:32:15;8.80;99.90
65462;DHT22;53236;43.666;18.444;2024-03-08T08:34:40;8.90;95.20
65462;DHT22;53236;43.666;18.444;2024-03-08T08:37:07;9.20;98.80
65462;DHT22;53236;43.666;18.444;2024-03-08T08:39:35;9.50;92.20
65462;DHT22;53236;43.666;18.444;2024-03-08T08:42:01;9.90;88.80
65462;DHT22;53236;43.666;18.444;2024-03-08T08:44:29;9.80;82.00
65462;DHT22;53236;43.666;18.444;2024-03-08T08:46:57;9.80;88.30
65462;DHT22;53236;43.666;18.444;2024-03-08T08:49:22;10.00;86.30
65462;DHT22;53236;43.666;18.444;2024-03-08T08:51:52;9.90;86.70
65462;DHT22;53236;43.666;18.444;2024-03-08T08:54:18;10.00;84.50
65462;DHT22;53236;43.666;18.444;2024-03-08T08:56:46;10.40;88.40
65462;DHT22;53236;43.666;18.444;2024-03-08T08:59:13;10.80;80.30
65462;DHT22;53236;43.666;18.444;2024-03-08T09:01:45;11.60;74.90
65462;DHT22;53236;43.666;18.444;2024-03-08T09:04:12;12.00;72.00
65462;DHT22;53236;43.666;18.444;2024-03-08T09:06:39;12.00;69.50
65462;DHT22;53236;43.666;18.444;2024-03-08T09:09:08;12.00;70.00
65462;DHT22;53236;43.666;18.444;2024-03-08T09:11:34;11.90;72.10
65462;DHT22;53236;43.666;18.444;2024-03-08T09:14:00;11.60;70.10
65462;DHT22;53236;43.666;18.444;2024-03-08T09:16:27;11.40;71.40
65462;DHT22;53236;43.666;18.444;2024-03-08T09:18:53;11.30;71.50
65462;DHT22;53236;43.666;18.444;2024-03-08T09:21:19;11.00;74.10
65462;DHT22;53236;43.666;18.444;2024-03-08T09:23:44;10.90;72.90
65462;DHT22;53236;43.666;18.444;2024-03-08T09:26:10;10.80;73.80
65462;DHT22;53236;43.666;18.444;2024-03-08T09:28:38;10.60;75.10
65462;DHT22;53236;43.666;18.444;2024-03-08T09:31:04;10.50;77.20
65462;DHT22;53236;43.666;18.444;2024-03-08T09:33:31;10.50;75.00
65462;DHT22;53236;43.666;18.444;2024-03-08T09:35:57;10.40;75.30
65462;DHT22;53236;43.666;18.444;2024-03-08T09:38:25;10.40;77.10
65462;DHT22;53236;43.666;18.444;2024-03-08T09:40:51;10.30;77.60
65462;DHT22;53236;43.666;18.444;2024-03-08T09:43:18;10.50;77.00
65462;DHT22;53236;43.666;18.444;2024-03-08T09:45:45;12.40;77.30
65462;DHT22;53236;43.666;18.444;2024-03-08T09:48:16;15.50;65.20
65462;DHT22;53236;43.666;18.444;2024-03-08T09:50:44;18.30;56.10
65462;DHT22;53236;43.666;18.444;2024-03-08T09:53:13;19.80;50.10
65462;DHT22;53236;43.666;18.444;2024-03-08T09:55:39;19.50;51.90
65462;DHT22;53236;43.666;18.444;2024-03-08T09:58:15;21.00;48.10
65462;DHT22;53236;43.666;18.444;2024-03-08T10:00:53;20.50;45.00
65462;DHT22;53236;43.666;18.444;2024-03-08T10:03:19;20.50;46.80
65462;DHT22;53236;43.666;18.444;2024-03-08T10:05:45;19.70;49.80
65462;DHT22;53236;43.666;18.444;2024-03-08T10:08:12;21.50;45.20
65462;DHT22;53236;43.666;18.444;2024-03-08T10:10:39;21.50;44.70
65462;DHT22;53236;43.666;18.444;2024-03-08T10:13:08;20.10;47.00
65462;DHT22;53236;43.666;18.444;2024-03-08T10:15:36;18.80;46.70
65462;DHT22;53236;43.666;18.444;2024-03-08T10:18:02;17.60;49.40
65462;DHT22;53236;43.666;18.444;2024-03-08T10:20:30;16.80;50.90
65462;DHT22;53236;43.666;18.444;2024-03-08T10:23:02;16.00;51.30
65462;DHT22;53236;43.666;18.444;2024-03-08T10:25:31;15.30;53.50
65462;DHT22;53236;43.666;18.444;2024-03-08T10:27:57;14.60;54.50
65462;DHT22;53236;43.666;18.444;2024-03-08T10:30:22;13.80;55.90
65462;DHT22;53236;43.666;18.444;2024-03-08T10:32:49;13.20;57.10
65462;DHT22;53236;43.666;18.444;2024-03-08T10:35:15;13.00;58.60
65462;DHT22;53236;43.666;18.444;2024-03-08T10:37:49;12.90;58.70
65462;DHT22;53236;43.666;18.444;2024-03-08T10:40:19;12.60;59.30
65462;DHT22;53236;43.666;18.444;2024-03-08T10:45:28;12.20;58.80
65462;DHT22;53236;43.666;18.444;2024-03-08T10:50:29;12.60;59.10
65462;DHT22;53236;43.666;18.444;2024-03-08T10:52:57;12.60;59.30
65462;DHT22;53236;43.666;18.444;2024-03-08T10:55:28;12.80;60.00
65462;DHT22;53236;43.666;18.444;2024-03-08T10:57:54;12.50;59.70
65462;DHT22;53236;43.666;18.444;2024-03-08T11:00:20;12.20;60.70
65462;DHT22;53236;43.666;18.444;2024-03-08T11:02:53;12.00;60.80
65462;DHT22;53236;43.666;18.444;2024-03-08T11:05:39;11.70;62.30
65462;DHT22;53236;43.666;18.444;2024-03-08T11:08:20;11.50;63.20
65462;DHT22;53236;43.666;18.444;2024-03-08T11:10:47;11.40;63.00
65462;DHT22;53236;43.666;18.444;2024-03-08T11:13:36;11.30;63.80
65462;DHT22;53236;43.666;18.444;2024-03-08T11:16:02;11.40;63.70
65462;DHT22;53236;43.666;18.444;2024-03-08T11:18:33;11.50;64.10
65462;DHT22;53236;43.666;18.444;2024-03-08T11:21:04;11.30;62.20
65462;DHT22;53236;43.666;18.444;2024-03-08T11:23:32;11.30;62.00
65462;DHT22;53236;43.666;18.444;2024-03-08T11:25:59;11.40;61.20
65462;DHT22;53236;43.666;18.444;2024-03-08T11:28:25;11.60;63.10
65462;DHT22;53236;43.666;18.444;2024-03-08T11:33:28;12.00;61.90
65462;DHT22;53236;43.666;18.444;2024-03-08T11:36:10;12.00;63.10
65462;DHT22;53236;43.666;18.444;2024-03-08T11:38:43;12.10;60.40
65462;DHT22;53236;43.666;18.444;2024-03-08T11:41:10;12.40;61.50
65462;DHT22;53236;43.666;18.444;2024-03-08T11:43:40;12.80;61.60
65462;DHT22;53236;43.666;18.444;2024-03-08T11:46:14;13.00;60.10
65462;DHT22;53236;43.666;18.444;2024-03-08T11:48:40;13.20;59.40
65462;DHT22;53236;43.666;18.444;2024-03-08T11:51:13;13.40;59.80
65462;DHT22;53236;43.666;18.444;2024-03-08T11:53:39;13.70;59.30
65462;DHT22;53236;43.666;18.444;2024-03-08T11:56:10;13.60;58.40
65462;DHT22;53236;43.666;18.444;2024-03-08T11:58:38;13.50;56.50
65462;DHT22;53236;43.666;18.444;2024-03-08T12:01:08;13.10;57.90
65462;DHT22;53236;43.666;18.444;2024-03-08T12:03:42;12.50;57.20
65462;DHT22;53236;43.666;18.444;2024-03-08T12:06:12;12.40;58.60
65462;DHT22;53236;43.666;18.444;2024-03-08T12:08:40;12.30;59.30
65462;DHT22;53236;43.666;18.444;2024-03-08T12:11:06;12.10;60.00
65462;DHT22;53236;43.666;18.444;2024-03-08T12:13:33;11.70;61.50
65462;DHT22;53236;43.666;18.444;2024-03-08T12:16:03;11.50;62.40
65462;DHT22;53236;43.666;18.444;2024-03-08T12:18:36;11.40;64.40
65462;DHT22;53236;43.666;18.444;2024-03-08T12:23:35;10.80;65.20
65462;DHT22;53236;43.666;18.444;2024-03-08T12:26:17;10.70;65.60
65462;DHT22;53236;43.666;18.444;2024-03-08T12:28:44;10.60;66.80
65462;DHT22;53236;43.666;18.444;2024-03-08T12:31:12;10.60;67.10
65462;DHT22;53236;43.666;18.444;2024-03-08T12:36:15;10.60;67.70
65462;DHT22;53236;43.666;18.444;2024-03-08T12:38:45;10.60;67.50
65462;DHT22;53236;43.666;18.444;2024-03-08T12:41:17;10.50;68.00
65462;DHT22;53236;43.666;18.444;2024-03-08T12:43:47;10.50;68.20
65462;DHT22;53236;43.666;18.444;2024-03-08T12:46:20;10.50;70.10
65462;DHT22;53236;43.666;18.444;2024-03-08T12:48:46;10.30;70.70
65462;DHT22;53236;43.666;18.444;2024-03-08T12:51:16;10.30;70.20
65462;DHT22;53236;43.666;18.444;2024-03-08T12:53:44;10.20;72.70
65462;DHT22;53236;43.666;18.444;2024-03-08T12:56:11;10.20;74.40
65462;DHT22;53236;43.666;18.444;2024-03-08T12:58:37;10.20;71.80
65462;DHT22;53236;43.666;18.444;2024-03-08T13:01:06;10.30;73.90
65462;DHT22;53236;43.666;18.444;2024-03-08T13:03:34;10.40;72.90
65462;DHT22;53236;43.666;18.444;2024-03-08T13:06:05;10.40;73.10
65462;DHT22;53236;43.666;18.444;2024-03-08T13:08:35;10.40;74.50
65462;DHT22;53236;43.666;18.444;2024-03-08T13:11:01;10.40;74.60
65462;DHT22;53236;43.666;18.444;2024-03-08T13:13:29;10.40;72.90
65462;DHT22;53236;43.666;18.444;2024-03-08T13:15:54;10.40;73.30
65462;DHT22;53236;43.666;18.444;2024-03-08T13:18:22;10.40;73.60
65462;DHT22;53236;43.666;18.444;2024-03-08T13:20:49;10.50;74.90
65462;DHT22;53236;43.666;18.444;2024-03-08T13:23:17;10.40;74.40
65462;DHT22;53236;43.666;18.444;2024-03-08T13:25:43;10.40;74.30
65462;DHT22;53236;43.666;18.444;2024-03-08T13:28:09;10.40;73.30
65462;DHT22;53236;43.666;18.444;2024-03-08T13:30:36;10.30;74.80
65462;DHT22;53236;43.666;18.444;2024-03-08T13:33:02;10.30;73.20
65462;DHT22;53236;43.666;18.444;2024-03-08T13:35:30;10.20;71.10
65462;DHT22;53236;43.666;18.444;2024-03-08T13:37:56;10.20;70.20
65462;DHT22;53236;43.666;18.444;2024-03-08T13:40:22;10.00;70.10
65462;DHT22;53236;43.666;18.444;2024-03-08T13:42:48;9.90;74.40
65462;DHT22;53236;43.666;18.444;2024-03-08T13:45:15;9.60;74.40
65462;DHT22;53236;43.666;18.444;2024-03-08T13:47:47;9.30;90.30
65462;DHT22;53236;43.666;18.444;2024-03-08T13:50:12;8.90;97.30
65462;DHT22;53236;43.666;18.444;2024-03-08T13:52:39;8.60;99.90
65462;DHT22;53236;43.666;18.444;2024-03-08T13:55:06;8.50;99.90
65462;DHT22;53236;43.666;18.444;2024-03-08T13:57:32;8.40;99.90
65462;DHT22;53236;43.666;18.444;2024-03-08T13:59:59;8.40;99.90
65462;DHT22;53236;43.666;18.444;2024-03-08T14:02:25;8.40;99.90
65462;DHT22;53236;43.666;18.444;2024-03-08T14:04:54;8.50;99.90
65462;DHT22;53236;43.666;18.444;2024-03-08T14:07:20;8.60;99.90
65462;DHT22;53236;43.666;18.444;2024-03-08T14:09:46;8.90;99.90
65462;DHT22;53236;43.666;18.444;2024-03-08T14:12:12;9.00;99.90
65462;DHT22;53236;43.666;18.444;2024-03-08T14:14:41;9.10;99.90
65462;DHT22;53236;43.666;18.444;2024-03-08T14:17:07;9.10;99.90
65462;DHT22;53236;43.666;18.444;2024-03-08T14:19:35;9.10;99.90
65462;DHT22;53236;43.666;18.444;2024-03-08T14:22:01;9.20;99.90
65462;DHT22;53236;43.666;18.444;2024-03-08T14:24:30;9.20;99.90
65462;DHT22;53236;43.666;18.444;2024-03-08T14:26:57;9.20;99.90
65462;DHT22;53236;43.666;18.444;2024-03-08T14:29:25;9.20;99.90
65462;DHT22;53236;43.666;18.444;2024-03-08T14:31:55;9.20;99.90
65462;DHT22;53236;43.666;18.444;2024-03-08T14:34:25;9.10;99.90
65462;DHT22;53236;43.666;18.444;2024-03-08T14:36:53;9.00;99.90
65462;DHT22;53236;43.666;18.444;2024-03-08T14:39:19;8.90;99.90
65462;DHT22;53236;43.666;18.444;2024-03-08T14:41:47;8.90;99.00
65462;DHT22;53236;43.666;18.444;2024-03-08T14:44:13;8.90;99.90
65462;DHT22;53236;43.666;18.444;2024-03-08T14:46:41;9.00;99.90
65462;DHT22;53236;43.666;18.444;2024-03-08T14:49:08;9.10;99.90
65462;DHT22;53236;43.666;18.444;2024-03-08T14:51:34;9.10;99.90
65462;DHT22;53236;43.666;18.444;2024-03-08T14:54:00;9.20;99.90
65462;DHT22;53236;43.666;18.444;2024-03-08T14:56:26;9.20;99.90
65462;DHT22;53236;43.666;18.444;2024-03-08T14:58:53;9.10;99.10
65462;DHT22;53236;43.666;18.444;2024-03-08T15:01:19;9.10;99.90
65462;DHT22;53236;43.666;18.444;2024-03-08T15:03:50;9.10;99.90
65462;DHT22;53236;43.666;18.444;2024-03-08T15:06:16;9.10;99.70
65462;DHT22;53236;43.666;18.444;2024-03-08T15:08:45;9.00;99.00
65462;DHT22;53236;43.666;18.444;2024-03-08T15:11:12;9.00;98.30
65462;DHT22;53236;43.666;18.444;2024-03-08T15:13:37;9.00;99.90
65462;DHT22;53236;43.666;18.444;2024-03-08T15:16:10;9.00;99.90
65462;DHT22;53236;43.666;18.444;2024-03-08T15:18:42;9.00;99.90
65462;DHT22;53236;43.666;18.444;2024-03-08T15:21:12;9.10;99.90
65462;DHT22;53236;43.666;18.444;2024-03-08T15:23:43;9.10;97.00
65462;DHT22;53236;43.666;18.444;2024-03-08T15:26:15;9.00;99.90
65462;DHT22;53236;43.666;18.444;2024-03-08T15:28:44;8.90;99.60
65462;DHT22;53236;43.666;18.444;2024-03-08T15:31:11;8.90;96.40
65462;DHT22;53236;43.666;18.444;2024-03-08T15:33:39;8.80;97.50
65462;DHT22;53236;43.666;18.444;2024-03-08T15:36:15;8.60;99.00
65462;DHT22;53236;43.666;18.444;2024-03-08T15:38:42;8.40;99.90
65462;DHT22;53236;43.666;18.444;2024-03-08T15:41:14;8.20;99.90